Terminal Aerodrome Forecast
Issued by NWS Charleston, SC

Home | Current Version | Previous Version | Text Only | Print | Product List | Glossary On
Versions: 1 2 3 4 5 6 7 8 9 10 11 12 13 14 15 16 17 18 19 20
000
FTUS42 KCHS 302300
TAFCHS
TAF
KCHS 302320Z 3100/3124 11011KT P6SM SCT025 BKN150
     FM310200 07005KT P6SM SCT020 BKN120
     FM311400 11012KT P6SM VCSH SCT035=

USA.gov is the U.S. government's official web portal to all federal, state and local government web resources and services.